sensor_id;sensor_type;location;lat;lon;timestamp;pressure;altitude;pressure_sealevel;temperature;humidity
3444;BME280;1736;52.068;6.968;2023-03-12T00:01:54;100715.09;;;0.71;84.33
3444;BME280;1736;52.068;6.968;2023-03-12T00:04:21;100706.47;;;0.69;84.88
3444;BME280;1736;52.068;6.968;2023-03-12T00:06:49;100707.25;;;0.71;84.23
3444;BME280;1736;52.068;6.968;2023-03-12T00:09:15;100707.19;;;0.73;83.67
3444;BME280;1736;52.068;6.968;2023-03-12T00:11:42;100711.31;;;0.78;84.25
3444;BME280;1736;52.068;6.968;2023-03-12T00:14:09;100701.69;;;0.79;84.32
3444;BME280;1736;52.068;6.968;2023-03-12T00:16:35;100704.06;;;0.85;83.89
3444;BME280;1736;52.068;6.968;2023-03-12T00:19:02;100697.00;;;0.87;82.49
3444;BME280;1736;52.068;6.968;2023-03-12T00:21:28;100697.84;;;0.87;83.03
3444;BME280;1736;52.068;6.968;2023-03-12T00:23:56;100702.22;;;0.87;82.79
3444;BME280;1736;52.068;6.968;2023-03-12T00:26:23;100694.44;;;0.85;83.29
3444;BME280;1736;52.068;6.968;2023-03-12T00:28:49;100697.00;;;0.87;82.41
3444;BME280;1736;52.068;6.968;2023-03-12T00:31:18;100691.94;;;0.84;82.95
3444;BME280;1736;52.068;6.968;2023-03-12T00:33:46;100689.44;;;0.81;83.48
3444;BME280;1736;52.068;6.968;2023-03-12T00:36:13;100683.69;;;0.73;83.50
3444;BME280;1736;52.068;6.968;2023-03-12T00:38:40;100689.03;;;0.70;84.56
3444;BME280;1736;52.068;6.968;2023-03-12T00:41:08;100686.72;;;0.64;84.94
3444;BME280;1736;52.068;6.968;2023-03-12T00:43:34;100683.53;;;0.57;85.22
3444;BME280;1736;52.068;6.968;2023-03-12T00:46:01;100678.50;;;0.53;85.79
3444;BME280;1736;52.068;6.968;2023-03-12T00:48:27;100681.44;;;0.45;85.71
3444;BME280;1736;52.068;6.968;2023-03-12T00:50:54;100679.94;;;0.40;85.88
3444;BME280;1736;52.068;6.968;2023-03-12T00:53:20;100678.34;;;0.36;86.34
3444;BME280;1736;52.068;6.968;2023-03-12T00:55:47;100673.91;;;0.38;87.01
3444;BME280;1736;52.068;6.968;2023-03-12T00:58:15;100664.22;;;0.41;86.25
3444;BME280;1736;52.068;6.968;2023-03-12T01:00:42;100666.59;;;0.46;85.93
3444;BME280;1736;52.068;6.968;2023-03-12T01:03:08;100662.19;;;0.48;85.73
3444;BME280;1736;52.068;6.968;2023-03-12T01:05:35;100661.31;;;0.47;85.00
3444;BME280;1736;52.068;6.968;2023-03-12T01:08:02;100656.22;;;0.44;84.98
3444;BME280;1736;52.068;6.968;2023-03-12T01:10:29;100652.03;;;0.40;85.00
3444;BME280;1736;52.068;6.968;2023-03-12T01:12:56;100659.94;;;0.39;84.96
3444;BME280;1736;52.068;6.968;2023-03-12T01:15:25;100660.72;;;0.41;84.98
3444;BME280;1736;52.068;6.968;2023-03-12T01:17:51;100651.16;;;0.41;84.97
3444;BME280;1736;52.068;6.968;2023-03-12T01:20:18;100651.16;;;0.41;85.34
3444;BME280;1736;52.068;6.968;2023-03-12T01:22:47;100646.75;;;0.42;84.92
3444;BME280;1736;52.068;6.968;2023-03-12T01:25:13;100642.34;;;0.44;85.39
3444;BME280;1736;52.068;6.968;2023-03-12T01:27:40;100636.19;;;0.45;85.00
3444;BME280;1736;52.068;6.968;2023-03-12T01:30:08;100635.09;;;0.50;85.01
3444;BME280;1736;52.068;6.968;2023-03-12T01:32:36;100632.41;;;0.52;84.83
3444;BME280;1736;52.068;6.968;2023-03-12T01:35:03;100634.16;;;0.51;84.52
3444;BME280;1736;52.068;6.968;2023-03-12T01:37:31;100632.41;;;0.52;84.24
3444;BME280;1736;52.068;6.968;2023-03-12T01:39:58;100629.88;;;0.50;84.58
3444;BME280;1736;52.068;6.968;2023-03-12T01:42:25;100632.25;;;0.55;84.43
3444;BME280;1736;52.068;6.968;2023-03-12T01:44:53;100630.44;;;0.57;84.04
3444;BME280;1736;52.068;6.968;2023-03-12T01:47:20;100633.97;;;0.56;84.03
3444;BME280;1736;52.068;6.968;2023-03-12T01:49:49;100631.16;;;0.60;83.80
3444;BME280;1736;52.068;6.968;2023-03-12T01:52:19;100630.16;;;0.63;84.07
3444;BME280;1736;52.068;6.968;2023-03-12T01:54:49;100626.09;;;0.57;83.86
3444;BME280;1736;52.068;6.968;2023-03-12T01:57:21;100631.22;;;0.59;84.07
3444;BME280;1736;52.068;6.968;2023-03-12T01:59:51;100632.72;;;0.64;83.41
3444;BME280;1736;52.068;6.968;2023-03-12T02:02:19;100625.16;;;0.58;83.64
3444;BME280;1736;52.068;6.968;2023-03-12T02:04:58;100623.19;;;0.63;83.62
3444;BME280;1736;52.068;6.968;2023-03-12T02:07:28;100623.88;;;0.67;83.33
3444;BME280;1736;52.068;6.968;2023-03-12T02:09:54;100621.16;;;0.70;82.50
3444;BME280;1736;52.068;6.968;2023-03-12T02:12:21;100619.47;;;0.69;83.18
3444;BME280;1736;52.068;6.968;2023-03-12T02:14:48;100622.00;;;0.70;83.10
3444;BME280;1736;52.068;6.968;2023-03-12T02:17:14;100612.56;;;0.68;83.43
3444;BME280;1736;52.068;6.968;2023-03-12T02:19:45;100607.97;;;0.73;83.35
3444;BME280;1736;52.068;6.968;2023-03-12T02:22:18;100601.56;;;0.80;83.16
3444;BME280;1736;52.068;6.968;2023-03-12T02:24:47;100606.56;;;0.84;82.15
3444;BME280;1736;52.068;6.968;2023-03-12T02:27:20;100605.13;;;0.77;82.20
3444;BME280;1736;52.068;6.968;2023-03-12T02:29:48;100603.63;;;0.92;81.37
3444;BME280;1736;52.068;6.968;2023-03-12T02:32:17;100601.13;;;0.89;81.43
3444;BME280;1736;52.068;6.968;2023-03-12T02:34:45;100595.06;;;1.07;80.92
3444;BME280;1736;52.068;6.968;2023-03-12T02:37:15;100581.91;;;0.90;80.79
3444;BME280;1736;52.068;6.968;2023-03-12T02:39:43;100590.81;;;0.86;81.68
3444;BME280;1736;52.068;6.968;2023-03-12T02:42:12;100595.97;;;0.87;81.48
3444;BME280;1736;52.068;6.968;2023-03-12T02:44:40;100584.97;;;0.81;81.72
3444;BME280;1736;52.068;6.968;2023-03-12T02:47:08;100578.94;;;0.79;81.69
3444;BME280;1736;52.068;6.968;2023-03-12T02:49:34;100580.94;;;0.92;80.72
3444;BME280;1736;52.068;6.968;2023-03-12T02:52:02;100580.09;;;0.92;80.86
3444;BME280;1736;52.068;6.968;2023-03-12T02:54:29;100592.25;;;0.93;81.10
3444;BME280;1736;52.068;6.968;2023-03-12T02:56:56;100577.50;;;0.92;80.65
3444;BME280;1736;52.068;6.968;2023-03-12T02:59:23;100577.41;;;0.93;80.88
3444;BME280;1736;52.068;6.968;2023-03-12T03:01:53;100567.09;;;0.90;82.17
3444;BME280;1736;52.068;6.968;2023-03-12T03:04:20;100569.50;;;0.95;81.67
3444;BME280;1736;52.068;6.968;2023-03-12T03:06:46;100567.59;;;0.98;81.78
3444;BME280;1736;52.068;6.968;2023-03-12T03:09:13;100555.53;;;0.96;81.52
3444;BME280;1736;52.068;6.968;2023-03-12T03:11:40;100546.75;;;0.97;81.31
3444;BME280;1736;52.068;6.968;2023-03-12T03:14:07;100540.69;;;0.96;81.42
3444;BME280;1736;52.068;6.968;2023-03-12T03:16:34;100532.91;;;0.95;81.66
3444;BME280;1736;52.068;6.968;2023-03-12T03:19:02;100532.91;;;0.95;81.25
3444;BME280;1736;52.068;6.968;2023-03-12T03:21:29;100537.00;;;1.00;80.84
3444;BME280;1736;52.068;6.968;2023-03-12T03:23:56;100540.56;;;0.99;81.00
3444;BME280;1736;52.068;6.968;2023-03-12T03:26:23;100529.72;;;1.07;80.00
3444;BME280;1736;52.068;6.968;2023-03-12T03:28:50;100534.88;;;1.08;80.09
3444;BME280;1736;52.068;6.968;2023-03-12T03:31:17;100528.38;;;1.17;79.48
3444;BME280;1736;52.068;6.968;2023-03-12T03:33:44;100519.88;;;1.12;80.56
3444;BME280;1736;52.068;6.968;2023-03-12T03:36:13;100524.06;;;1.16;80.34
3444;BME280;1736;52.068;6.968;2023-03-12T03:38:40;100519.47;;;1.21;79.63
3444;BME280;1736;52.068;6.968;2023-03-12T03:41:11;100519.63;;;1.18;79.96
3444;BME280;1736;52.068;6.968;2023-03-12T03:43:38;100512.69;;;1.17;80.78
3444;BME280;1736;52.068;6.968;2023-03-12T03:46:05;100511.00;;;1.16;80.39
3444;BME280;1736;52.068;6.968;2023-03-12T03:48:32;100500.25;;;1.22;79.46
3444;BME280;1736;52.068;6.968;2023-03-12T03:50:59;100508.03;;;1.23;80.17
3444;BME280;1736;52.068;6.968;2023-03-12T03:53:27;100505.06;;;1.12;80.64
3444;BME280;1736;52.068;6.968;2023-03-12T03:55:54;100498.31;;;1.08;80.66
3444;BME280;1736;52.068;6.968;2023-03-12T03:58:21;100503.16;;;1.16;79.92
3444;BME280;1736;52.068;6.968;2023-03-12T04:00:47;100498.09;;;1.13;79.91
3444;BME280;1736;52.068;6.968;2023-03-12T04:03:14;100501.91;;;1.06;80.19
3444;BME280;1736;52.068;6.968;2023-03-12T04:05:41;100498.84;;;1.15;80.34
3444;BME280;1736;52.068;6.968;2023-03-12T04:08:09;100493.16;;;1.07;81.54
3444;BME280;1736;52.068;6.968;2023-03-12T04:10:37;100492.06;;;1.11;80.45
3444;BME280;1736;52.068;6.968;2023-03-12T04:13:04;100496.38;;;1.12;80.31
3444;BME280;1736;52.068;6.968;2023-03-12T04:15:31;100494.75;;;1.09;80.36
3444;BME280;1736;52.068;6.968;2023-03-12T04:17:57;100495.13;;;1.02;80.99
3444;BME280;1736;52.068;6.968;2023-03-12T04:20:24;100487.44;;;0.99;80.82
3444;BME280;1736;52.068;6.968;2023-03-12T04:22:50;100488.72;;;1.09;80.90
3444;BME280;1736;52.068;6.968;2023-03-12T04:25:17;100479.31;;;1.05;80.73
3444;BME280;1736;52.068;6.968;2023-03-12T04:27:45;100488.84;;;1.06;80.46
3444;BME280;1736;52.068;6.968;2023-03-12T04:30:12;100485.44;;;1.04;81.40
3444;BME280;1736;52.068;6.968;2023-03-12T04:32:39;100476.53;;;1.08;81.18
3444;BME280;1736;52.068;6.968;2023-03-12T04:35:05;100469.63;;;1.07;81.12
3444;BME280;1736;52.068;6.968;2023-03-12T04:37:32;100460.72;;;1.11;80.80
3444;BME280;1736;52.068;6.968;2023-03-12T04:39:59;100458.22;;;1.26;79.97
3444;BME280;1736;52.068;6.968;2023-03-12T04:42:26;100462.81;;;1.21;80.21
3444;BME280;1736;52.068;6.968;2023-03-12T04:44:54;100462.34;;;1.30;79.63
3444;BME280;1736;52.068;6.968;2023-03-12T04:47:21;100460.38;;;1.18;79.79
3444;BME280;1736;52.068;6.968;2023-03-12T04:49:47;100450.13;;;1.14;80.19
3444;BME280;1736;52.068;6.968;2023-03-12T04:52:14;100447.13;;;1.21;79.76
3444;BME280;1736;52.068;6.968;2023-03-12T04:54:41;100446.53;;;1.33;79.36
3444;BME280;1736;52.068;6.968;2023-03-12T04:57:08;100441.75;;;1.24;80.01
3444;BME280;1736;52.068;6.968;2023-03-12T04:59:35;100443.91;;;1.33;79.26
3444;BME280;1736;52.068;6.968;2023-03-12T05:02:03;100441.06;;;1.38;79.19
3444;BME280;1736;52.068;6.968;2023-03-12T05:04:29;100431.22;;;1.43;79.13
3444;BME280;1736;52.068;6.968;2023-03-12T05:06:56;100429.84;;;1.36;78.93
3444;BME280;1736;52.068;6.968;2023-03-12T05:09:25;100423.78;;;1.35;80.39
3444;BME280;1736;52.068;6.968;2023-03-12T05:11:51;100416.84;;;1.34;79.41
3444;BME280;1736;52.068;6.968;2023-03-12T05:14:18;100410.09;;;1.47;78.85
3444;BME280;1736;52.068;6.968;2023-03-12T05:16:45;100409.38;;;1.27;79.18
3444;BME280;1736;52.068;6.968;2023-03-12T05:19:12;100398.00;;;1.11;80.34
3444;BME280;1736;52.068;6.968;2023-03-12T05:21:41;100395.72;;;1.05;80.98
3444;BME280;1736;52.068;6.968;2023-03-12T05:24:07;100392.16;;;1.06;80.84
3444;BME280;1736;52.068;6.968;2023-03-12T05:26:34;100392.63;;;1.14;80.07
3444;BME280;1736;52.068;6.968;2023-03-12T05:29:03;100389.25;;;1.12;80.20
3444;BME280;1736;52.068;6.968;2023-03-12T05:31:31;100389.09;;;1.15;80.48
3444;BME280;1736;52.068;6.968;2023-03-12T05:33:59;100398.31;;;1.05;80.75
3444;BME280;1736;52.068;6.968;2023-03-12T05:36:27;100389.69;;;1.03;81.70
3444;BME280;1736;52.068;6.968;2023-03-12T05:38:54;100398.78;;;1.13;82.00
3444;BME280;1736;52.068;6.968;2023-03-12T05:41:22;100397.25;;;1.09;81.47
3444;BME280;1736;52.068;6.968;2023-03-12T05:43:50;100391.31;;;1.05;81.69
3444;BME280;1736;52.068;6.968;2023-03-12T05:46:17;100392.31;;;1.20;82.18
3444;BME280;1736;52.068;6.968;2023-03-12T05:48:44;100384.41;;;1.21;81.17
3444;BME280;1736;52.068;6.968;2023-03-12T05:51:10;100378.41;;;1.19;81.42
3444;BME280;1736;52.068;6.968;2023-03-12T05:53:38;100385.19;;;1.40;80.47
3444;BME280;1736;52.068;6.968;2023-03-12T05:56:07;100389.88;;;1.34;80.71
3444;BME280;1736;52.068;6.968;2023-03-12T05:58:35;100382.09;;;1.32;80.71
3444;BME280;1736;52.068;6.968;2023-03-12T06:01:09;100380.09;;;1.37;80.58
3444;BME280;1736;52.068;6.968;2023-03-12T06:03:36;100376.25;;;1.44;80.80
3444;BME280;1736;52.068;6.968;2023-03-12T06:06:03;100355.84;;;1.51;80.17
3444;BME280;1736;52.068;6.968;2023-03-12T06:08:29;100351.22;;;1.56;80.79
3444;BME280;1736;52.068;6.968;2023-03-12T06:10:57;100352.78;;;1.43;81.39
3444;BME280;1736;52.068;6.968;2023-03-12T06:13:24;100350.91;;;1.62;80.27
3444;BME280;1736;52.068;6.968;2023-03-12T06:15:52;100341.69;;;1.55;80.82
3444;BME280;1736;52.068;6.968;2023-03-12T06:18:19;100342.63;;;1.54;81.49
3444;BME280;1736;52.068;6.968;2023-03-12T06:20:45;100346.78;;;1.58;81.53
3444;BME280;1736;52.068;6.968;2023-03-12T06:23:12;100352.00;;;1.58;81.50
3444;BME280;1736;52.068;6.968;2023-03-12T06:25:38;100351.41;;;1.53;81.30
3444;BME280;1736;52.068;6.968;2023-03-12T06:28:06;100371.41;;;1.54;81.79
3444;BME280;1736;52.068;6.968;2023-03-12T06:30:32;100372.41;;;1.51;81.81
3444;BME280;1736;52.068;6.968;2023-03-12T06:32:59;100374.94;;;1.53;82.02
3444;BME280;1736;52.068;6.968;2023-03-12T06:35:28;100369.53;;;1.56;81.97
3444;BME280;1736;52.068;6.968;2023-03-12T06:37:54;100353.63;;;1.60;82.83
3444;BME280;1736;52.068;6.968;2023-03-12T06:40:21;100358.06;;;1.58;83.02
3444;BME280;1736;52.068;6.968;2023-03-12T06:42:47;100354.53;;;1.59;83.75
3444;BME280;1736;52.068;6.968;2023-03-12T06:45:15;100355.44;;;1.58;83.35
3444;BME280;1736;52.068;6.968;2023-03-12T06:47:42;100350.00;;;1.63;84.38
3444;BME280;1736;52.068;6.968;2023-03-12T06:50:09;100343.34;;;1.73;83.38
3444;BME280;1736;52.068;6.968;2023-03-12T06:52:36;100334.53;;;1.91;83.00
3444;BME280;1736;52.068;6.968;2023-03-12T06:55:05;100334.38;;;1.94;83.06
3444;BME280;1736;52.068;6.968;2023-03-12T06:57:31;100335.22;;;2.10;83.69
3444;BME280;1736;52.068;6.968;2023-03-12T06:59:58;100343.50;;;2.18;83.68
3444;BME280;1736;52.068;6.968;2023-03-12T07:02:26;100342.81;;;2.30;84.07
3444;BME280;1736;52.068;6.968;2023-03-12T07:04:52;100338.41;;;2.30;84.23
3444;BME280;1736;52.068;6.968;2023-03-12T07:07:19;100340.03;;;2.33;84.02
3444;BME280;1736;52.068;6.968;2023-03-12T07:09:45;100332.16;;;2.33;84.26
3444;BME280;1736;52.068;6.968;2023-03-12T07:12:12;100323.22;;;2.37;84.61
3444;BME280;1736;52.068;6.968;2023-03-12T07:14:38;100324.56;;;2.44;85.37
3444;BME280;1736;52.068;6.968;2023-03-12T07:17:05;100331.56;;;2.59;85.25
3444;BME280;1736;52.068;6.968;2023-03-12T07:19:33;100327.00;;;2.62;85.70
3444;BME280;1736;52.068;6.968;2023-03-12T07:22:00;100322.41;;;2.66;85.66
3444;BME280;1736;52.068;6.968;2023-03-12T07:24:26;100323.34;;;2.65;87.16
3444;BME280;1736;52.068;6.968;2023-03-12T07:26:53;100311.19;;;2.64;87.15
3444;BME280;1736;52.068;6.968;2023-03-12T07:29:19;100320.16;;;2.60;87.28
3444;BME280;1736;52.068;6.968;2023-03-12T07:31:46;100315.94;;;2.57;87.62
3444;BME280;1736;52.068;6.968;2023-03-12T07:34:12;100317.13;;;2.52;88.18
3444;BME280;1736;52.068;6.968;2023-03-12T07:36:40;100305.22;;;2.46;88.73
3444;BME280;1736;52.068;6.968;2023-03-12T07:39:07;100304.47;;;2.44;89.60
3444;BME280;1736;52.068;6.968;2023-03-12T07:41:34;100297.59;;;2.42;90.33
3444;BME280;1736;52.068;6.968;2023-03-12T07:44:01;100300.84;;;2.47;90.90
3444;BME280;1736;52.068;6.968;2023-03-12T07:46:28;100298.13;;;2.48;91.71
3444;BME280;1736;52.068;6.968;2023-03-12T07:48:55;100311.34;;;2.61;91.84
3444;BME280;1736;52.068;6.968;2023-03-12T07:51:21;100307.13;;;2.58;92.13
3444;BME280;1736;52.068;6.968;2023-03-12T07:53:49;100306.97;;;2.61;92.43
3444;BME280;1736;52.068;6.968;2023-03-12T07:56:16;100306.47;;;2.55;93.42
3444;BME280;1736;52.068;6.968;2023-03-12T07:58:42;100304.78;;;2.54;93.23
3444;BME280;1736;52.068;6.968;2023-03-12T08:01:09;100287.22;;;2.56;93.31
3444;BME280;1736;52.068;6.968;2023-03-12T08:03:35;100284.31;;;2.60;93.69
3444;BME280;1736;52.068;6.968;2023-03-12T08:06:04;100288.56;;;2.63;93.54
3444;BME280;1736;52.068;6.968;2023-03-12T08:08:31;100284.22;;;2.62;93.82
3444;BME280;1736;52.068;6.968;2023-03-12T08:10:59;100292.16;;;2.60;94.82
3444;BME280;1736;52.068;6.968;2023-03-12T08:13:26;100286.44;;;2.69;94.34
3444;BME280;1736;52.068;6.968;2023-03-12T08:15:53;100288.19;;;2.69;94.52
3444;BME280;1736;52.068;6.968;2023-03-12T08:18:20;100284.53;;;2.71;94.44
3444;BME280;1736;52.068;6.968;2023-03-12T08:20:49;100285.72;;;2.66;94.07
3444;BME280;1736;52.068;6.968;2023-03-12T08:23:16;100285.81;;;2.80;94.66
3444;BME280;1736;52.068;6.968;2023-03-12T08:25:44;100290.31;;;2.92;94.57
3444;BME280;1736;52.068;6.968;2023-03-12T08:28:12;100290.66;;;2.86;93.59
3444;BME280;1736;52.068;6.968;2023-03-12T08:30:38;100277.56;;;2.86;95.04
3444;BME280;1736;52.068;6.968;2023-03-12T08:33:05;100281.03;;;2.86;94.11
3444;BME280;1736;52.068;6.968;2023-03-12T08:35:31;100276.75;;;2.85;94.28
3444;BME280;1736;52.068;6.968;2023-03-12T08:37:58;100272.88;;;2.91;94.80
3444;BME280;1736;52.068;6.968;2023-03-12T08:40:25;100280.56;;;2.94;94.95
3444;BME280;1736;52.068;6.968;2023-03-12T08:42:52;100271.41;;;2.87;94.99
3444;BME280;1736;52.068;6.968;2023-03-12T08:45:20;100267.84;;;2.88;95.11
3444;BME280;1736;52.068;6.968;2023-03-12T08:47:47;100267.84;;;2.88;95.48
3444;BME280;1736;52.068;6.968;2023-03-12T08:50:15;100265.31;;;2.86;96.01
3444;BME280;1736;52.068;6.968;2023-03-12T08:52:42;100262.63;;;2.88;95.97
3444;BME280;1736;52.068;6.968;2023-03-12T08:55:09;100259.69;;;2.92;95.94
3444;BME280;1736;52.068;6.968;2023-03-12T08:57:37;100248.31;;;2.93;96.11
3444;BME280;1736;52.068;6.968;2023-03-12T09:00:05;100254.84;;;3.00;96.09
3444;BME280;1736;52.068;6.968;2023-03-12T09:02:42;100249.50;;;2.88;97.16
3444;BME280;1736;52.068;6.968;2023-03-12T09:05:08;100254.75;;;3.02;97.68
3444;BME280;1736;52.068;6.968;2023-03-12T09:07:36;100255.06;;;2.97;98.77
3444;BME280;1736;52.068;6.968;2023-03-12T09:10:03;100252.19;;;3.16;99.07
3444;BME280;1736;52.068;6.968;2023-03-12T09:12:29;100266.88;;;3.18;100.00
3444;BME280;1736;52.068;6.968;2023-03-12T09:14:56;100262.19;;;3.09;100.00
3444;BME280;1736;52.068;6.968;2023-03-12T09:17:22;100263.78;;;3.12;100.00
3444;BME280;1736;52.068;6.968;2023-03-12T09:19:50;100260.69;;;3.05;100.00
3444;BME280;1736;52.068;6.968;2023-03-12T09:22:17;100253.66;;;3.06;100.00
3444;BME280;1736;52.068;6.968;2023-03-12T09:24:43;100253.00;;;3.02;100.00
3444;BME280;1736;52.068;6.968;2023-03-12T09:27:10;100253.66;;;3.06;100.00
3444;BME280;1736;52.068;6.968;2023-03-12T09:29:37;100255.69;;;3.01;100.00
3444;BME280;1736;52.068;6.968;2023-03-12T09:32:04;100249.34;;;3.05;100.00
3444;BME280;1736;52.068;6.968;2023-03-12T09:34:30;100243.16;;;3.06;100.00
3444;BME280;1736;52.068;6.968;2023-03-12T09:36:58;100252.44;;;2.97;100.00
3444;BME280;1736;52.068;6.968;2023-03-12T09:39:25;100253.44;;;2.95;100.00
3444;BME280;1736;52.068;6.968;2023-03-12T09:41:51;100251.19;;;3.03;100.00
3444;BME280;1736;52.068;6.968;2023-03-12T09:44:25;100250.00;;;3.08;100.00
3444;BME280;1736;52.068;6.968;2023-03-12T09:46:55;100249.16;;;3.08;100.00
3444;BME280;1736;52.068;6.968;2023-03-12T09:49:30;100239.72;;;3.05;100.00
3444;BME280;1736;52.068;6.968;2023-03-12T09:52:02;100251.13;;;3.04;100.00
3444;BME280;1736;52.068;6.968;2023-03-12T09:54:37;100245.78;;;3.06;100.00
3444;BME280;1736;52.068;6.968;2023-03-12T09:57:10;100237.28;;;3.16;100.00
3444;BME280;1736;52.068;6.968;2023-03-12T09:59:37;100245.03;;;3.18;100.00
3444;BME280;1736;52.068;6.968;2023-03-12T10:02:19;100250.19;;;3.19;100.00
3444;BME280;1736;52.068;6.968;2023-03-12T10:04:54;100248.81;;;3.28;100.00
3444;BME280;1736;52.068;6.968;2023-03-12T10:07:28;100253.75;;;3.32;100.00
3444;BME280;1736;52.068;6.968;2023-03-12T10:10:05;100249.72;;;3.27;100.00
3444;BME280;1736;52.068;6.968;2023-03-12T10:12:46;100248.81;;;3.42;100.00
3444;BME280;1736;52.068;6.968;2023-03-12T10:15:27;100244.03;;;3.48;100.00
3444;BME280;1736;52.068;6.968;2023-03-12T10:18:07;100246.06;;;3.57;100.00
3444;BME280;1736;52.068;6.968;2023-03-12T10:20:59;100236.63;;;3.69;100.00
3444;BME280;1736;52.068;6.968;2023-03-12T10:23:42;100218.03;;;3.86;100.00
3444;BME280;1736;52.068;6.968;2023-03-12T10:26:15;100236.22;;;3.89;100.00
3444;BME280;1736;52.068;6.968;2023-03-12T10:28:47;100236.56;;;3.97;100.00
3444;BME280;1736;52.068;6.968;2023-03-12T10:31:18;100223.88;;;4.03;100.00
3444;BME280;1736;52.068;6.968;2023-03-12T10:33:50;100226.97;;;4.10;100.00
3444;BME280;1736;52.068;6.968;2023-03-12T10:36:20;100239.22;;;4.09;100.00
3444;BME280;1736;52.068;6.968;2023-03-12T10:38:49;100250.03;;;4.05;100.00
3444;BME280;1736;52.068;6.968;2023-03-12T10:41:17;100255.84;;;4.10;100.00
3444;BME280;1736;52.068;6.968;2023-03-12T10:43:45;100246.91;;;4.12;100.00
3444;BME280;1736;52.068;6.968;2023-03-12T10:46:42;100234.03;;;4.22;100.00
3444;BME280;1736;52.068;6.968;2023-03-12T10:49:29;100250.53;;;4.24;100.00
3444;BME280;1736;52.068;6.968;2023-03-12T10:51:59;100241.50;;;4.28;100.00
3444;BME280;1736;52.068;6.968;2023-03-12T10:54:35;100243.94;;;4.31;100.00
3444;BME280;1736;52.068;6.968;2023-03-12T10:57:03;100235.47;;;4.40;100.00
3444;BME280;1736;52.068;6.968;2023-03-12T10:59:32;100236.44;;;4.51;100.00
3444;BME280;1736;52.068;6.968;2023-03-12T11:01:59;100238.03;;;4.54;100.00
3444;BME280;1736;52.068;6.968;2023-03-12T11:04:28;100231.84;;;4.55;100.00
3444;BME280;1736;52.068;6.968;2023-03-12T11:07:17;100229.84;;;4.58;100.00
3444;BME280;1736;52.068;6.968;2023-03-12T11:10:03;100225.44;;;4.71;100.00
3444;BME280;1736;52.068;6.968;2023-03-12T11:12:38;100227.56;;;4.79;100.00
3444;BME280;1736;52.068;6.968;2023-03-12T11:15:18;100225.03;;;4.90;100.00
3444;BME280;1736;52.068;6.968;2023-03-12T11:17:45;100223.38;;;4.89;100.00
3444;BME280;1736;52.068;6.968;2023-03-12T11:20:25;100221.25;;;4.94;100.00
3444;BME280;1736;52.068;6.968;2023-03-12T11:22:52;100221.38;;;5.05;100.00
3444;BME280;1736;52.068;6.968;2023-03-12T11:25:22;100213.00;;;5.12;100.00
3444;BME280;1736;52.068;6.968;2023-03-12T11:27:52;100214.31;;;5.18;100.00
3444;BME280;1736;52.068;6.968;2023-03-12T11:30:22;100226.88;;;5.27;100.00
3444;BME280;1736;52.068;6.968;2023-03-12T11:32:50;100223.19;;;5.29;100.00
3444;BME280;1736;52.068;6.968;2023-03-12T11:35:23;100220.84;;;5.50;100.00
3444;BME280;1736;52.068;6.968;2023-03-12T11:37:59;100225.38;;;5.48;100.00
3444;BME280;1736;52.068;6.968;2023-03-12T11:40:41;100221.69;;;5.50;100.00
3444;BME280;1736;52.068;6.968;2023-03-12T11:43:25;100210.72;;;5.56;100.00
3444;BME280;1736;52.068;6.968;2023-03-12T11:46:06;100221.94;;;5.71;100.00
3444;BME280;1736;52.068;6.968;2023-03-12T11:48:41;100219.94;;;5.87;100.00
3444;BME280;1736;52.068;6.968;2023-03-12T11:51:21;100214.25;;;5.93;100.00
3444;BME280;1736;52.068;6.968;2023-03-12T11:54:04;100221.09;;;5.83;100.00
3444;BME280;1736;52.068;6.968;2023-03-12T11:56:36;100218.44;;;5.96;100.00
3444;BME280;1736;52.068;6.968;2023-03-12T12:02:15;100222.38;;;6.14;100.00
3444;BME280;1736;52.068;6.968;2023-03-12T12:05:00;100214.44;;;6.26;100.00
3444;BME280;1736;52.068;6.968;2023-03-12T12:07:41;100209.38;;;6.23;100.00
3444;BME280;1736;52.068;6.968;2023-03-12T12:10:22;100213.16;;;6.43;100.00
3444;BME280;1736;52.068;6.968;2023-03-12T12:12:58;100215.41;;;6.36;100.00
3444;BME280;1736;52.068;6.968;2023-03-12T12:15:36;100209.22;;;6.37;100.00
3444;BME280;1736;52.068;6.968;2023-03-12T12:18:15;100214.03;;;6.43;100.00
3444;BME280;1736;52.068;6.968;2023-03-12T12:20:55;100215.03;;;6.53;100.00
3444;BME280;1736;52.068;6.968;2023-03-12T12:23:29;100191.59;;;6.72;100.00
3444;BME280;1736;52.068;6.968;2023-03-12T12:26:03;100202.78;;;6.87;100.00
3444;BME280;1736;52.068;6.968;2023-03-12T12:29:05;100193.94;;;6.99;100.00
3444;BME280;1736;52.068;6.968;2023-03-12T12:31:42;100172.97;;;7.08;100.00
3444;BME280;1736;52.068;6.968;2023-03-12T12:37:27;100174.03;;;7.28;100.00
3444;BME280;1736;52.068;6.968;2023-03-12T12:40:01;100172.97;;;7.19;100.00
3444;BME280;1736;52.068;6.968;2023-03-12T12:42:35;100162.44;;;7.30;100.00
3444;BME280;1736;52.068;6.968;2023-03-12T12:45:11;100162.91;;;7.24;100.00
3444;BME280;1736;52.068;6.968;2023-03-12T12:47:44;100165.78;;;7.43;100.00
3444;BME280;1736;52.068;6.968;2023-03-12T12:50:16;100162.41;;;7.41;100.00
3444;BME280;1736;52.068;6.968;2023-03-12T12:52:45;100155.47;;;7.40;100.00
3444;BME280;1736;52.068;6.968;2023-03-12T12:55:18;100156.41;;;7.50;100.00
3444;BME280;1736;52.068;6.968;2023-03-12T12:57:50;100151.22;;;7.60;100.00
3444;BME280;1736;52.068;6.968;2023-03-12T13:00:38;100159.25;;;7.80;100.00
3444;BME280;1736;52.068;6.968;2023-03-12T13:03:12;100154.53;;;7.84;100.00
3444;BME280;1736;52.068;6.968;2023-03-12T13:05:44;100153.09;;;7.91;100.00
3444;BME280;1736;52.068;6.968;2023-03-12T13:08:34;100146.38;;;7.98;100.00
3444;BME280;1736;52.068;6.968;2023-03-12T13:11:04;100132.50;;;8.05;100.00
3444;BME280;1736;52.068;6.968;2023-03-12T13:13:31;100145.56;;;8.18;100.00
3444;BME280;1736;52.068;6.968;2023-03-12T13:16:26;100142.69;;;8.21;100.00
3444;BME280;1736;52.068;6.968;2023-03-12T13:18:55;100132.78;;;8.34;100.00
3444;BME280;1736;52.068;6.968;2023-03-12T13:21:27;100139.00;;;8.44;100.00
3444;BME280;1736;52.068;6.968;2023-03-12T13:24:04;100138.47;;;8.50;100.00
3444;BME280;1736;52.068;6.968;2023-03-12T13:26:46;100131.81;;;8.55;100.00
3444;BME280;1736;52.068;6.968;2023-03-12T13:29:22;100124.63;;;8.57;100.00
3444;BME280;1736;52.068;6.968;2023-03-12T13:31:50;100123.91;;;8.55;100.00
3444;BME280;1736;52.068;6.968;2023-03-12T13:34:32;100127.50;;;8.54;100.00
3444;BME280;1736;52.068;6.968;2023-03-12T13:37:18;100124.50;;;8.59;100.00